Albany, Oklahoma
Current Conditions -  °F | °C
As of 8:55 PM on Sunday 23 Nov 2014 (Local Time) from KDUA Reporting Station
Overcast Overcast  
Wind Chill: 50°   Ceiling: 2900
Heat Index: 50°   Visibility: 10mi
Dew Point: 43°   Wind: 24mph
Humidity: 76%   Direction: 320°NW
Pressure: 29.67"   Gusts: 30mph
Location:  33.88°N, 96.16°W
Report Text: KDUA 240255Z AUTO 32021G26KT 10SM BKN029 BKN035 OVC050 10/06 A2967 RMK AO2
Loading
Personal Weather Stations






























Interactive Weather Map New forecast layout! Learn more

10-Day Weather Forecast

Advertisements
Track Severe Weather on mobile